Time;durP1;ratioP1;P1;durP2;ratioP2;P2;SDS_P1;SDS_P2;PMS_P1;PMS_P2;Temp;Humidity;BMP_temperature;BMP_pressure;BME280_temperature;BME280_humidity;BME280_pressure;Samples;Min_cycle;Max_cycle;Signal;HPM_P1;HPM_P2
2023/04/11 00:00:11;;;;;;;75.90;45.88;;;;;;;8.35;100.00;99642.47;5053772;28;20473;-75
2023/04/11 00:02:37;;;;;;;70.38;46.92;;;;;;;8.21;100.00;99603.19;5053912;28;20029;-75
2023/04/11 00:05:07;;;;;;;76.78;44.22;;;;;;;8.26;100.00;99619.47;5054060;28;20029;-75
2023/04/11 00:07:32;;;;;;;70.85;46.88;;;;;;;8.16;100.00;99594.75;5054228;28;20032;-75
2023/04/11 00:09:58;;;;;;;75.90;46.38;;;;;;;8.32;100.00;99624.41;5053670;28;20036;-75
2023/04/11 00:12:23;;;;;;;75.63;46.03;;;;;;;8.18;100.00;99606.75;5054053;28;20370;-75
2023/04/11 00:14:48;;;;;;;76.78;48.80;;;;;;;8.30;100.00;99626.22;5053651;28;20029;-75
2023/04/11 00:17:16;;;;;;;75.05;48.42;;;;;;;8.19;100.00;99608.44;5053784;28;20136;-75
2023/04/11 00:19:42;;;;;;;79.93;48.05;;;;;;;8.23;100.00;99614.38;5053849;28;20021;-75
2023/04/11 00:22:08;;;;;;;71.47;48.72;;;;;;;8.24;100.00;99611.72;5053589;28;20452;-74
2023/04/11 00:24:33;;;;;;;76.88;47.78;;;;;;;8.21;100.00;99598.84;5053806;28;20060;-74
2023/04/11 00:27:00;;;;;;;76.20;49.28;;;;;;;8.19;100.00;99600.66;5053373;28;20055;-74
2023/04/11 00:29:25;;;;;;;78.63;46.70;;;;;;;8.14;100.00;99601.75;5053843;28;20045;-75
2023/04/11 00:31:51;;;;;;;75.07;50.42;;;;;;;8.29;100.00;99602.91;5053160;28;20029;-75
2023/04/11 00:34:17;;;;;;;79.93;49.47;;;;;;;8.16;100.00;99590.41;5053440;28;20064;-75
2023/04/11 00:36:42;;;;;;;74.22;46.15;;;;;;;8.29;100.00;99598.56;5053574;28;20117;-75
2023/04/11 00:39:08;;;;;;;75.63;49.47;;;;;;;8.14;100.00;99566.28;5053134;28;20439;-75
2023/04/11 00:41:33;;;;;;;77.85;49.42;;;;;;;8.21;100.00;99583.28;5053457;28;20047;-75
2023/04/11 00:43:59;;;;;;;82.53;50.33;;;;;;;8.23;100.00;99591.88;5052956;28;20056;-74
2023/04/11 00:46:24;;;;;;;75.30;46.35;;;;;;;8.17;100.00;99591.25;5053128;28;20117;-75
2023/04/11 00:48:50;;;;;;;77.68;47.80;;;;;;;8.21;100.00;99587.63;5051918;28;20040;-75
2023/04/11 00:51:17;;;;;;;77.00;46.08;;;;;;;8.19;100.00;99579.91;5053314;28;20372;-75
2023/04/11 00:53:44;;;;;;;73.25;43.75;;;;;;;8.13;100.00;99572.38;5052977;28;20461;-75
2023/04/11 00:56:10;;;;;;;66.38;42.78;;;;;;;7.95;100.00;99552.28;5052794;28;20483;-75
2023/04/11 00:58:37;;;;;;;76.00;45.70;;;;;;;7.96;100.00;99553.97;5053085;28;20385;-74
2023/04/11 01:01:08;;;;;;;74.57;45.92;;;;;;;8.10;100.00;99564.69;5052558;28;20024;-74
2023/04/11 01:03:34;;;;;;;79.57;46.57;;;;;;;7.83;100.00;99524.22;5053118;28;20021;-74
2023/04/11 01:06:00;;;;;;;74.90;45.45;;;;;;;7.99;100.00;99557.31;5052838;28;20029;-75
2023/04/11 01:08:25;;;;;;;70.55;43.33;;;;;;;8.03;100.00;99539.03;5053287;28;20040;-75
2023/04/11 01:10:51;;;;;;;68.93;44.83;;;;;;;8.17;100.00;99563.53;5052685;28;20457;-75
2023/04/11 01:13:17;;;;;;;66.55;42.83;;;;;;;8.03;100.00;99526.91;5052336;28;20032;-75
2023/04/11 01:15:42;;;;;;;68.15;41.05;;;;;;;8.18;100.00;99557.47;5052517;28;20039;-74
2023/04/11 01:18:08;;;;;;;74.20;44.55;;;;;;;8.13;100.00;99550.75;5051787;28;20521;-74
2023/04/11 01:20:33;;;;;;;70.85;43.97;;;;;;;7.83;100.00;99490.53;5052337;28;20036;-74
2023/04/11 01:23:01;;;;;;;71.68;42.65;;;;;;;8.14;100.00;99542.09;5052177;28;20092;-74
2023/04/11 01:25:27;;;;;;;75.10;45.92;;;;;;;8.03;100.00;99533.84;5052530;28;20051;-74
2023/04/11 01:27:52;;;;;;;77.07;44.13;;;;;;;8.00;100.00;99535.66;5052264;28;20028;-75
2023/04/11 01:30:18;;;;;;;73.80;43.97;;;;;;;7.95;100.00;99532.38;5052148;28;20468;-74
2023/04/11 01:32:43;;;;;;;74.20;45.20;;;;;;;7.86;100.00;99516.34;5052261;28;20110;-74
2023/04/11 01:35:11;;;;;;;79.55;46.17;;;;;;;7.81;100.00;99508.75;5052141;28;20389;-74
2023/04/11 01:37:36;;;;;;;75.68;49.13;;;;;;;7.82;100.00;99500.06;5052189;28;20051;-74
2023/04/11 01:40:04;;;;;;;75.22;46.00;;;;;;;7.93;100.00;99521.25;5051738;28;20540;-74
2023/04/11 01:42:31;;;;;;;71.57;44.33;;;;;;;7.71;100.00;99492.69;5052083;28;20036;-74
2023/04/11 01:44:58;;;;;;;75.70;46.63;;;;;;;7.71;100.00;99495.28;5051715;28;20600;-74
2023/04/11 01:47:23;;;;;;;79.07;48.53;;;;;;;7.78;100.00;99506.25;5052136;28;20469;-74
2023/04/11 01:49:49;;;;;;;79.95;46.88;;;;;;;7.78;100.00;99493.28;5052037;28;20063;-74
2023/04/11 01:52:14;;;;;;;76.00;46.17;;;;;;;7.63;100.00;99484.34;5052011;28;20029;-74
2023/04/11 01:54:40;;;;;;;73.50;47.92;;;;;;;7.80;100.00;99507.06;5051890;28;20033;-74
2023/04/11 01:57:05;;;;;;;74.60;48.28;;;;;;;7.74;100.00;99491.72;5051455;28;20234;-74
2023/04/11 01:59:30;;;;;;;73.43;44.70;;;;;;;7.57;100.00;99473.34;5051450;28;20659;-75
2023/04/11 02:01:56;;;;;;;83.28;45.63;;;;;;;7.48;100.00;99469.34;5051323;28;20476;-75
2023/04/11 02:04:21;;;;;;;80.47;47.13;;;;;;;7.53;100.00;99461.41;5051429;28;20040;-74
2023/04/11 02:06:46;;;;;;;81.82;50.20;;;;;;;7.70;100.00;99495.31;5051571;28;20040;-74
2023/04/11 02:09:12;;;;;;;76.30;45.97;;;;;;;7.57;100.00;99456.06;5051215;28;20039;-75
2023/04/11 02:11:37;;;;;;;75.22;46.38;;;;;;;7.78;100.00;99469.13;5051499;28;20143;-75
2023/04/11 02:14:02;;;;;;;78.22;46.08;;;;;;;7.51;100.00;99448.53;5051084;28;20112;-75
2023/04/11 02:16:28;;;;;;;73.25;44.92;;;;;;;7.50;100.00;99426.94;5051675;28;20063;-75
2023/04/11 02:18:54;;;;;;;74.43;43.40;;;;;;;7.55;100.00;99436.31;5051288;28;20025;-75
2023/04/11 02:21:20;;;;;;;75.13;43.95;;;;;;;7.58;100.00;99454.31;5051424;28;20029;-74
2023/04/11 02:23:45;;;;;;;81.72;49.30;;;;;;;7.54;100.00;99447.53;5051236;28;20051;-75
2023/04/11 02:26:10;;;;;;;74.25;44.13;;;;;;;7.42;100.00;99438.50;5051017;28;20032;-75
2023/04/11 02:28:36;;;;;;;75.38;47.72;;;;;;;7.44;100.00;99423.72;5050989;28;20044;-75
2023/04/11 02:31:02;;;;;;;72.75;45.17;;;;;;;7.56;100.00;99444.00;5051223;28;20040;-75
2023/04/11 02:33:27;;;;;;;64.05;42.38;;;;;;;7.30;100.00;99407.88;5051138;28;20092;-75
2023/04/11 02:35:52;;;;;;;70.10;43.15;;;;;;;7.54;100.00;99439.78;5051109;28;20024;-75
2023/04/11 02:38:18;;;;;;;69.63;46.15;;;;;;;7.49;100.00;99427.00;5051199;28;20544;-75
2023/04/11 02:40:43;;;;;;;69.55;41.55;;;;;;;7.56;100.00;99435.38;5050947;28;20392;-75
2023/04/11 02:43:08;;;;;;;64.90;39.00;;;;;;;7.62;100.00;99450.69;5050735;28;20461;-75
2023/04/11 02:45:34;;;;;;;63.33;41.22;;;;;;;7.50;100.00;99416.59;5050862;28;20021;-75
2023/04/11 02:47:59;;;;;;;63.15;38.70;;;;;;;7.53;100.00;99436.34;5050868;28;20033;-75
2023/04/11 02:50:25;;;;;;;63.45;40.08;;;;;;;7.47;100.00;99416.69;5050803;28;20419;-75
2023/04/11 02:52:51;;;;;;;59.85;40.67;;;;;;;7.73;100.00;99443.38;5050723;28;20376;-75
2023/04/11 02:55:17;;;;;;;60.50;39.55;;;;;;;7.72;100.00;99439.09;5050746;28;20035;-75
2023/04/11 02:57:42;;;;;;;60.78;40.70;;;;;;;7.75;100.00;99431.19;5050795;28;20039;-75
2023/04/11 03:00:08;;;;;;;67.45;41.85;;;;;;;7.59;100.00;99407.63;5050515;28;20021;-75
2023/04/11 03:02:33;;;;;;;64.53;41.95;;;;;;;7.41;100.00;99384.97;5050947;28;20091;-74
2023/04/11 03:05:02;;;;;;;64.55;40.72;;;;;;;7.64;100.00;99421.25;5050424;28;20080;-74
2023/04/11 03:07:29;;;;;;;59.67;38.65;;;;;;;7.41;100.00;99396.19;5050594;28;20059;-74
2023/04/11 03:09:54;;;;;;;65.20;41.80;;;;;;;7.48;100.00;99417.53;5050395;28;20036;-74
2023/04/11 03:12:20;;;;;;;68.28;43.47;;;;;;;7.29;100.00;99388.03;5053034;28;20074;-74
2023/04/11 03:14:45;;;;;;;67.88;42.65;;;;;;;7.45;100.00;99413.28;5054981;28;20048;-74
2023/04/11 03:17:10;;;;;;;71.35;41.13;;;;;;;7.20;100.00;99397.81;5054708;28;20029;-74
2023/04/11 03:19:36;;;;;;;70.13;44.10;;;;;;;7.17;100.00;99394.53;5054600;28;20029;-74
2023/04/11 03:22:01;;;;;;;72.47;45.65;;;;;;;7.35;100.00;99411.13;5054402;28;20029;-74
2023/04/11 03:24:26;;;;;;;70.85;44.55;;;;;;;7.15;100.00;99381.59;5054527;28;20036;-75
2023/04/11 03:26:52;;;;;;;70.90;44.00;;;;;;;7.15;100.00;99373.00;5054268;28;20029;-74
2023/04/11 03:29:17;;;;;;;75.43;45.03;;;;;;;7.09;100.00;99357.69;5053082;28;20045;-74
2023/04/11 03:31:42;;;;;;;76.88;44.85;;;;;;;7.06;100.00;99375.94;5054604;28;20381;-74
2023/04/11 03:34:07;;;;;;;73.20;44.58;;;;;;;7.01;100.00;99355.38;5054141;28;20060;-74
2023/04/11 03:36:33;;;;;;;70.75;42.88;;;;;;;7.07;100.00;99364.66;5054504;28;20062;-74
2023/04/11 03:38:58;;;;;;;69.30;42.50;;;;;;;7.09;100.00;99344.75;5054867;28;20036;-74
2023/04/11 03:41:24;;;;;;;70.70;42.67;;;;;;;7.10;100.00;99338.66;5055124;28;20705;-74
2023/04/11 03:43:49;;;;;;;71.35;41.65;;;;;;;7.25;100.00;99351.91;5055033;28;20024;-74
2023/04/11 03:46:14;;;;;;;68.38;43.22;;;;;;;7.14;100.00;99330.72;5055055;28;20436;-74
2023/04/11 03:48:40;;;;;;;65.70;40.97;;;;;;;7.12;100.00;99326.50;5055287;28;20025;-74
2023/04/11 03:51:06;;;;;;;63.25;41.28;;;;;;;7.14;100.00;99320.38;5055074;28;20029;-74
2023/04/11 03:53:31;;;;;;;60.60;38.28;;;;;;;7.33;100.00;99346.44;5055120;28;20412;-74
2023/04/11 03:55:57;;;;;;;64.35;38.05;;;;;;;7.25;100.00;99338.94;5054942;28;20036;-75
2023/04/11 03:58:22;;;;;;;62.67;40.63;;;;;;;7.35;100.00;99336.84;5054826;28;20033;-75
2023/04/11 04:00:47;;;;;;;63.60;39.85;;;;;;;7.17;100.00;99311.63;5054930;28;20600;-74
2023/04/11 04:03:13;;;;;;;69.55;40.03;;;;;;;7.18;100.00;99311.56;5054812;28;20044;-75
2023/04/11 04:05:40;;;;;;;65.95;40.70;;;;;;;7.31;100.00;99330.06;5054933;28;20025;-74
2023/04/11 04:08:05;;;;;;;65.32;40.33;;;;;;;7.38;100.00;99343.66;5054630;28;20037;-74
2023/04/11 04:10:31;;;;;;;70.13;42.80;;;;;;;7.28;100.00;99319.00;5054592;28;20036;-74
2023/04/11 04:12:56;;;;;;;68.88;40.50;;;;;;;7.14;100.00;99303.97;5054278;28;20033;-74
2023/04/11 04:15:21;;;;;;;76.50;42.38;;;;;;;7.31;100.00;99337.84;5055004;28;20032;-74
2023/04/11 04:17:47;;;;;;;72.78;45.08;;;;;;;7.34;100.00;99335.16;5054748;28;20052;-74
2023/04/11 04:20:12;;;;;;;71.53;43.25;;;;;;;7.16;100.00;99305.63;5054565;28;20024;-74
2023/04/11 04:22:37;;;;;;;72.97;43.70;;;;;;;7.34;100.00;99329.13;5054434;28;20029;-74
2023/04/11 04:25:03;;;;;;;74.40;44.47;;;;;;;7.18;100.00;99305.56;5054126;28;20530;-74
2023/04/11 04:27:28;;;;;;;75.88;47.20;;;;;;;7.19;100.00;99302.91;5054288;28;20451;-74
2023/04/11 04:29:55;;;;;;;73.80;46.78;;;;;;;7.24;100.00;99308.72;5053975;28;20049;-74
2023/04/11 04:32:23;;;;;;;73.22;45.83;;;;;;;7.38;100.00;99330.69;5054286;28;20504;-74
2023/04/11 04:34:56;;;;;;;71.97;44.97;;;;;;;7.20;100.00;99299.41;5054302;28;20021;-74
2023/04/11 04:37:23;;;;;;;76.18;47.65;;;;;;;7.42;100.00;99319.31;5054338;28;20032;-74
2023/04/11 04:39:55;;;;;;;79.97;45.15;;;;;;;7.38;100.00;99312.56;5054110;28;20108;-74
2023/04/11 04:42:22;;;;;;;79.75;47.08;;;;;;;7.13;100.00;99279.84;5054121;28;20025;-74
2023/04/11 04:44:48;;;;;;;74.03;46.63;;;;;;;7.25;100.00;99286.28;5054261;28;20029;-74
2023/04/11 04:47:14;;;;;;;81.05;47.67;;;;;;;7.45;100.00;99314.84;5053964;28;20027;-74
2023/04/11 04:49:40;;;;;;;78.45;47.53;;;;;;;7.45;100.00;99296.69;5054152;28;20029;-74
2023/04/11 04:52:05;;;;;;;74.18;47.63;;;;;;;7.53;100.00;99285.19;5054028;28;20441;-74
2023/04/11 04:54:31;;;;;;;71.88;48.67;;;;;;;7.74;100.00;99308.50;5053547;28;20484;-74
2023/04/11 04:56:57;;;;;;;75.13;46.13;;;;;;;7.43;100.00;99292.50;5052553;28;20106;-74
2023/04/11 04:59:22;;;;;;;77.25;47.42;;;;;;;7.34;100.00;99295.44;5053928;28;20025;-74
2023/04/11 05:01:50;;;;;;;76.82;45.20;;;;;;;7.43;100.00;99310.63;5054130;28;20064;-74
2023/04/11 05:04:16;;;;;;;78.55;46.20;;;;;;;7.07;100.00;99284.38;5053652;28;20480;-74
2023/04/11 05:06:41;;;;;;;78.78;48.70;;;;;;;7.04;100.00;99280.19;5053702;28;20033;-74
2023/04/11 05:09:07;;;;;;;82.47;49.08;;;;;;;7.19;100.00;99284.75;5053313;28;20025;-74
2023/04/11 05:11:32;;;;;;;80.30;49.33;;;;;;;7.17;100.00;99275.38;5053774;28;20055;-75
2023/04/11 05:13:58;;;;;;;79.28;47.72;;;;;;;7.04;100.00;99253.44;5053384;28;20075;-75
2023/04/11 05:16:23;;;;;;;79.35;48.70;;;;;;;7.09;100.00;99257.53;5053811;28;20033;-74
2023/04/11 05:18:49;;;;;;;83.20;48.95;;;;;;;6.98;100.00;99237.22;5053432;28;20457;-74
2023/04/11 05:21:14;;;;;;;81.38;49.50;;;;;;;7.03;100.00;99252.59;5053084;28;20025;-74
2023/04/11 05:23:40;;;;;;;78.78;48.55;;;;;;;7.07;100.00;99254.16;5053234;28;20142;-74
2023/04/11 05:26:09;;;;;;;75.68;47.38;;;;;;;7.00;100.00;99258.75;5053437;28;20041;-74
2023/04/11 05:28:34;;;;;;;78.07;51.30;;;;;;;6.96;100.00;99202.81;5053198;28;20048;-74
2023/04/11 05:31:01;;;;;;;80.03;50.40;;;;;;;6.98;100.00;99205.31;5053132;28;20409;-75
2023/04/11 05:33:26;;;;;;;76.78;47.10;;;;;;;6.77;100.00;99173.34;5053176;28;20033;-75
2023/04/11 05:35:52;;;;;;;82.40;47.72;;;;;;;7.05;100.00;99216.28;5052790;28;20082;-75
2023/04/11 05:38:17;;;;;;;78.20;46.08;;;;;;;6.95;100.00;99180.41;5052774;28;20039;-74
2023/04/11 05:40:43;;;;;;;73.35;46.30;;;;;;;7.18;100.00;99191.59;5053149;28;20032;-74
2023/04/11 05:43:12;;;;;;;77.97;46.75;;;;;;;7.28;100.00;99186.88;5052937;28;20025;-74
2023/04/11 05:45:38;;;;;;;75.40;44.13;;;;;;;7.37;100.00;99187.34;5052966;28;20029;-74
2023/04/11 05:48:06;;;;;;;73.50;47.28;;;;;;;7.47;100.00;99191.25;5052669;28;20102;-74
2023/04/11 05:50:32;;;;;;;69.82;45.17;;;;;;;7.49;100.00;99186.00;5052788;28;20083;-74
2023/04/11 05:52:57;;;;;;;66.70;42.53;;;;;;;7.36;100.00;99159.75;5052591;28;20051;-74
2023/04/11 05:55:23;;;;;;;67.50;42.85;;;;;;;7.51;100.00;99181.59;5052650;28;20106;-75
2023/04/11 05:57:48;;;;;;;73.15;44.92;;;;;;;7.53;100.00;99179.78;5051302;28;20025;-75
2023/04/11 06:00:15;;;;;;;78.88;44.95;;;;;;;7.25;100.00;99144.66;5051137;28;20039;-75
2023/04/11 06:02:41;;;;;;;72.40;42.05;;;;;;;7.40;100.00;99169.09;5052472;28;20044;-75
2023/04/11 06:05:10;;;;;;;75.07;43.00;;;;;;;6.96;100.00;99090.63;5052233;28;20427;-75
2023/04/11 06:07:36;;;;;;;71.18;42.45;;;;;;;7.30;100.00;99144.47;5039715;28;20026;-79
2023/04/11 06:10:01;;;;;;;66.05;39.75;;;;;;;7.19;100.00;99129.38;5049398;28;20354;-79
2023/04/11 06:12:27;;;;;;;68.35;41.60;;;;;;;7.30;100.00;99131.53;5052233;28;20025;-79
2023/04/11 06:14:52;;;;;;;67.75;41.58;;;;;;;7.38;100.00;99137.22;5052329;28;20028;-79
2023/04/11 06:17:17;;;;;;;63.58;40.45;;;;;;;7.20;100.00;99115.50;5052093;28;20033;-78
2023/04/11 06:19:43;;;;;;;69.78;40.65;;;;;;;7.26;100.00;99114.41;5052210;28;20098;-78
2023/04/11 06:22:08;;;;;;;68.25;38.75;;;;;;;7.29;100.00;99122.06;5050522;28;20048;-79
2023/04/11 06:24:38;;;;;;;68.57;42.17;;;;;;;7.32;100.00;99114.16;5052387;28;20090;-78
2023/04/11 06:27:05;;;;;;;64.82;40.22;;;;;;;7.42;100.00;99138.78;5051933;28;20385;-79
2023/04/11 06:29:30;;;;;;;68.45;42.17;;;;;;;7.42;100.00;99131.00;5051423;28;20474;-79
2023/04/11 06:31:57;;;;;;;69.35;40.53;;;;;;;7.50;100.00;99141.06;5041225;28;20119;-78
2023/04/11 06:34:22;;;;;;;66.43;42.47;;;;;;;7.61;100.00;99140.59;5042171;28;20029;-78
2023/04/11 06:36:48;;;;;;;62.13;38.53;;;;;;;7.68;100.00;99135.09;5041001;28;20373;-78
2023/04/11 06:39:15;;;;;;;66.22;40.20;;;;;;;7.64;100.00;99130.94;5041375;28;20021;-78
2023/04/11 06:41:41;;;;;;;64.50;39.90;;;;;;;7.76;100.00;99132.16;5042534;28;20021;-78
2023/04/11 06:44:06;;;;;;;59.67;37.95;;;;;;;7.72;100.00;99122.84;5049122;28;20035;-78
2023/04/11 06:46:31;;;;;;;60.03;38.95;;;;;;;7.82;99.91;99123.28;5050894;28;20021;-79
2023/04/11 06:48:57;;;;;;;59.67;36.97;;;;;;;7.69;99.33;99099.63;5051721;28;20032;-78
2023/04/11 06:51:22;;;;;;;62.95;38.70;;;;;;;7.78;99.21;99111.34;5051771;28;20455;-78
2023/04/11 06:53:47;;;;;;;66.53;40.78;;;;;;;7.80;99.61;99101.78;5052154;28;20025;-78
2023/04/11 06:56:13;;;;;;;61.08;38.33;;;;;;;7.72;99.41;99089.97;5051088;28;20071;-78
2023/04/11 06:58:38;;;;;;;65.75;37.08;;;;;;;7.71;99.60;99093.50;5051650;28;20492;-78
2023/04/11 07:01:03;;;;;;;69.97;43.13;;;;;;;7.78;99.70;99095.78;5051336;28;20021;-78
2023/04/11 07:03:29;;;;;;;69.88;41.95;;;;;;;7.81;99.54;99085.31;5051561;28;20032;-78
2023/04/11 07:05:55;;;;;;;64.78;41.53;;;;;;;7.92;98.89;99088.22;5051429;28;20047;-78
2023/04/11 07:08:20;;;;;;;71.63;41.80;;;;;;;8.00;99.26;99109.47;5051701;28;20032;-78
2023/04/11 07:10:45;;;;;;;71.85;42.17;;;;;;;7.93;99.53;99108.09;5051693;28;20025;-79
2023/04/11 07:13:11;;;;;;;70.47;42.90;;;;;;;7.91;99.60;99107.31;5051408;28;20025;-78
2023/04/11 07:15:36;;;;;;;68.90;42.13;;;;;;;7.90;99.98;99101.28;5051703;28;20112;-78
2023/04/11 07:18:01;;;;;;;67.63;40.58;;;;;;;7.93;100.00;99102.91;5051575;28;20032;-78
2023/04/11 07:20:27;;;;;;;64.90;39.63;;;;;;;7.88;99.41;99095.34;5051199;28;20025;-78
2023/04/11 07:22:52;;;;;;;68.63;42.60;;;;;;;7.96;99.56;99077.69;5051730;28;20025;-78
2023/04/11 07:25:21;;;;;;;67.75;41.33;;;;;;;8.19;99.45;99102.56;5051178;28;20465;-78
2023/04/11 07:27:48;;;;;;;80.07;41.67;;;;;;;8.14;99.42;99094.16;5051686;28;20545;-78
2023/04/11 07:30:14;;;;;;;65.53;42.95;;;;;;;7.99;99.59;99068.91;5051228;28;20053;-78
2023/04/11 07:32:39;;;;;;;65.60;42.10;;;;;;;8.15;99.42;99082.88;5051431;28;20021;-78
2023/04/11 07:35:05;;;;;;;70.28;40.92;;;;;;;8.07;99.30;99045.22;5051399;28;20461;-78
2023/04/11 07:37:31;;;;;;;70.03;44.45;;;;;;;8.12;99.36;99049.28;5051874;28;20021;-77
2023/04/11 07:39:56;;;;;;;64.63;39.25;;;;;;;8.08;98.89;99050.31;5051272;28;20465;-78
2023/04/11 07:42:22;;;;;;;70.10;43.80;;;;;;;8.05;99.35;99053.09;5051519;28;20024;-78
2023/04/11 07:44:47;;;;;;;73.07;46.20;;;;;;;8.17;99.83;99065.47;5051309;28;20111;-78
2023/04/11 07:47:12;;;;;;;69.82;42.80;;;;;;;8.17;99.95;99059.44;5051114;28;20234;-78
2023/04/11 07:49:38;;;;;;;76.85;44.28;;;;;;;8.11;100.00;99055.38;5050469;28;20487;-78
2023/04/11 07:52:03;;;;;;;72.10;43.75;;;;;;;7.96;100.00;99033.59;5051342;28;20025;-78
2023/04/11 07:54:28;;;;;;;70.18;42.83;;;;;;;8.00;100.00;99029.09;5050936;28;20477;-78
2023/04/11 07:56:55;;;;;;;73.32;44.05;;;;;;;7.86;100.00;98979.63;5051285;28;20024;-78
2023/04/11 07:59:21;;;;;;;78.00;44.22;;;;;;;8.16;100.00;99024.88;5055029;28;20029;-78
2023/04/11 08:01:46;;;;;;;69.75;43.85;;;;;;;8.21;100.00;99033.28;5054916;28;20068;-78
2023/04/11 08:04:12;;;;;;;74.47;45.70;;;;;;;8.30;100.00;99021.66;5054621;28;20152;-78
2023/04/11 08:06:37;;;;;;;71.28;43.28;;;;;;;8.45;100.00;99038.28;5055022;28;20060;-78
2023/04/11 08:09:04;;;;;;;71.53;42.70;;;;;;;8.51;99.82;99040.56;5054904;28;20377;-78
2023/04/11 08:11:29;;;;;;;75.38;44.30;;;;;;;8.55;99.77;99034.31;5054710;28;20039;-78
2023/04/11 08:13:55;;;;;;;76.78;44.88;;;;;;;8.52;99.50;99011.13;5054847;28;20025;-78
2023/04/11 08:16:20;;;;;;;72.35;45.40;;;;;;;8.60;99.10;99019.38;5054725;28;20029;-78
2023/04/11 08:18:46;;;;;;;77.00;45.72;;;;;;;8.78;98.65;99030.63;5054554;28;20036;-78
2023/04/11 08:21:12;;;;;;;78.25;46.75;;;;;;;8.60;98.17;98992.59;5054036;28;20477;-77
2023/04/11 08:23:41;;;;;;;77.82;48.60;;;;;;;8.80;98.58;98999.38;5054689;28;20040;-78
2023/04/11 08:26:07;;;;;;;75.93;47.33;;;;;;;8.88;97.80;99005.84;5054669;28;20048;-78
2023/04/11 08:28:33;;;;;;;78.55;47.30;;;;;;;8.97;97.67;98999.34;5054094;28;20087;-78
2023/04/11 08:31:02;;;;;;;73.97;46.08;;;;;;;9.09;97.32;98993.53;5054384;28;20535;-78
2023/04/11 08:33:28;;;;;;;72.82;43.80;;;;;;;9.42;96.15;99014.38;5053293;28;20577;-78
2023/04/11 08:35:53;;;;;;;66.00;42.45;;;;;;;9.20;95.60;98960.06;5054525;28;20060;-78
2023/04/11 08:38:19;;;;;;;70.78;42.67;;;;;;;9.52;94.33;98996.50;5054104;28;20025;-75
2023/04/11 08:40:45;;;;;;;71.05;41.80;;;;;;;9.68;93.94;98999.97;5054381;28;20468;-75
2023/04/11 08:43:13;;;;;;;66.78;40.47;;;;;;;9.88;93.33;98993.72;5054061;28;20058;-78
2023/04/11 08:45:39;;;;;;;63.28;39.03;;;;;;;9.99;92.73;98991.38;5054041;28;20484;-78
2023/04/11 08:48:06;;;;;;;65.75;42.35;;;;;;;10.40;91.73;99009.09;5054402;28;20499;-78
2023/04/11 08:50:32;;;;;;;61.05;38.63;;;;;;;10.39;90.89;98983.16;5053931;28;20410;-79
2023/04/11 08:53:01;;;;;;;67.30;41.65;;;;;;;10.53;89.72;98991.00;5054253;28;20055;-78
2023/04/11 08:55:26;;;;;;;61.47;40.75;;;;;;;10.74;89.54;98996.75;5053852;28;20032;-78
2023/04/11 08:57:52;;;;;;;60.50;39.15;;;;;;;10.76;89.14;98996.69;5053897;28;20082;-78
2023/04/11 09:00:22;;;;;;;60.10;38.40;;;;;;;10.63;89.19;98993.94;5053402;28;20040;-78
2023/04/11 09:02:57;;;;;;;64.28;40.50;;;;;;;10.65;89.49;98992.91;5053290;28;20052;-78
2023/04/11 09:05:30;;;;;;;61.40;39.08;;;;;;;10.86;88.98;98993.44;5042652;28;20057;-78
2023/04/11 09:07:57;;;;;;;57.95;37.28;;;;;;;10.83;88.19;98965.00;5045490;28;20028;-78
2023/04/11 09:10:24;;;;;;;62.83;38.65;;;;;;;10.95;87.87;98960.78;5032651;28;20448;-78
2023/04/11 09:12:50;;;;;;;62.28;38.85;;;;;;;11.08;87.63;98982.63;5046991;28;20053;-79
2023/04/11 09:15:22;;;;;;;61.72;37.95;;;;;;;11.21;86.97;98980.13;5053753;28;20111;-80
2023/04/11 09:17:48;;;;;;;57.95;37.78;;;;;;;11.14;86.53;98957.94;5053698;28;20032;-78
2023/04/11 09:20:25;;;;;;;59.30;35.53;;;;;;;11.18;85.84;98969.88;5049111;28;20022;-78
2023/04/11 09:22:51;;;;;;;52.42;32.28;;;;;;;11.17;85.06;98958.63;5033568;28;20032;-78
2023/04/11 09:25:21;;;;;;;49.80;33.03;;;;;;;11.38;84.95;98951.25;5031899;28;20398;-78
2023/04/11 09:27:48;;;;;;;50.17;33.47;;;;;;;11.54;84.55;98945.09;5033629;28;20036;-78
2023/04/11 09:30:25;;;;;;;56.03;33.40;;;;;;;11.30;83.75;98914.38;5033308;28;20129;-78
2023/04/11 09:32:52;;;;;;;50.58;32.28;;;;;;;11.26;84.01;98940.75;5033342;28;20037;-78
2023/04/11 09:35:22;;;;;;;50.75;32.38;;;;;;;11.16;84.45;98922.19;5033183;28;20032;-77
2023/04/11 09:37:56;;;;;;;48.65;32.70;;;;;;;11.29;84.60;98928.34;5041313;28;20024;-78
2023/04/11 09:40:24;;;;;;;50.10;32.08;;;;;;;11.47;84.35;98926.38;5053050;28;20170;-77
2023/04/11 09:43:02;;;;;;;49.65;30.60;;;;;;;11.49;83.84;98930.56;5053175;28;20100;-77
2023/04/11 09:45:29;;;;;;;48.60;32.95;;;;;;;11.51;84.07;98922.66;5052805;28;20060;-77
2023/04/11 09:47:57;;;;;;;53.20;34.53;;;;;;;11.84;83.69;98938.00;5053008;28;20491;-77
2023/04/11 09:50:24;;;;;;;48.33;31.67;;;;;;;11.92;82.81;98940.13;5051254;28;20366;-77
2023/04/11 09:52:51;;;;;;;51.33;32.00;;;;;;;11.94;82.21;98923.44;5053045;28;20096;-76
2023/04/11 09:55:21;;;;;;;43.85;30.40;;;;;;;12.23;81.54;98934.63;5052768;28;20036;-77
2023/04/11 09:57:48;;;;;;;46.55;34.50;;;;;;;12.59;81.07;98954.03;5052872;28;20036;-77
2023/04/11 10:00:19;;;;;;;51.65;36.35;;;;;;;12.79;80.14;98947.50;5052826;28;20037;-77
2023/04/11 10:02:51;;;;;;;53.25;32.80;;;;;;;12.88;79.66;98930.34;5052715;28;20025;-77
2023/04/11 10:05:18;;;;;;;40.08;30.75;;;;;;;13.05;79.12;98939.66;5052604;28;20545;-76
2023/04/11 10:07:51;;;;;;;45.45;32.50;;;;;;;13.23;78.50;98957.59;5052439;28;20032;-77
2023/04/11 10:10:19;;;;;;;44.80;29.85;;;;;;;13.27;77.97;98950.34;5052254;28;20644;-75
2023/04/11 10:12:44;;;;;;;37.47;28.85;;;;;;;13.24;78.10;98929.66;5037573;28;20153;-75
2023/04/11 10:15:10;;;;;;;42.47;30.52;;;;;;;13.43;77.95;98953.59;5032580;28;20461;-78
2023/04/11 10:17:36;;;;;;;41.03;30.00;;;;;;;13.35;77.64;98945.44;5032267;28;20038;-78
2023/04/11 10:20:30;;;;;;;49.88;34.60;;;;;;;13.57;77.15;98963.13;5032387;28;20081;-78
2023/04/11 10:22:59;;;;;;;39.08;30.08;;;;;;;13.61;76.55;98954.09;5032546;28;20021;-79
2023/04/11 10:25:26;;;;;;;38.42;26.33;;;;;;;13.71;75.91;98965.59;5032165;28;20029;-78
2023/04/11 10:27:55;;;;;;;37.35;27.58;;;;;;;13.84;76.10;98967.34;5032273;28;20406;-79
2023/04/11 10:30:47;;;;;;;38.20;27.48;;;;;;;13.99;75.63;98968.88;5031798;28;20435;-78
2023/04/11 10:33:16;;;;;;;30.35;22.88;;;;;;;14.06;74.55;98958.78;5029686;28;20057;-78
2023/04/11 10:36:02;;;;;;;33.58;23.73;;;;;;;13.91;73.94;98939.78;5029640;28;20042;-81
2023/04/11 10:38:48;;;;;;;29.90;22.85;;;;;;;13.81;73.93;98970.16;5029525;28;20068;-79
2023/04/11 10:41:16;;;;;;;30.70;23.27;;;;;;;13.88;74.47;98971.41;5029747;28;20038;-78
2023/04/11 10:43:42;;;;;;;42.47;31.55;;;;;;;13.99;74.76;98963.66;5029434;28;20033;-79
2023/04/11 10:46:24;;;;;;;33.95;28.38;;;;;;;14.10;75.06;98966.31;5029624;28;20084;-80
2023/04/11 10:48:57;;;;;;;33.40;25.98;;;;;;;14.11;75.22;98973.22;5029461;28;20025;-81
2023/04/11 10:51:26;;;;;;;32.78;26.98;;;;;;;14.00;75.89;98940.91;5029292;28;20041;-80
2023/04/11 10:53:52;;;;;;;33.95;24.73;;;;;;;13.90;76.52;98949.41;5029506;28;20468;-79
2023/04/11 10:56:38;;;;;;;28.63;23.77;;;;;;;13.95;76.43;98972.66;5029466;28;20040;-75
2023/04/11 10:59:04;;;;;;;27.33;22.10;;;;;;;13.93;76.56;98971.91;5029296;28;20032;-75
2023/04/11 11:01:29;;;;;;;28.83;21.52;;;;;;;13.76;76.23;98956.56;5029089;28;20033;-75
2023/04/11 11:03:55;;;;;;;26.77;22.13;;;;;;;13.74;75.99;98961.94;5029457;28;20034;-75
2023/04/11 11:06:21;;;;;;;22.85;19.30;;;;;;;13.82;75.68;98991.03;5029259;28;20477;-75
2023/04/11 11:08:47;;;;;;;24.05;18.35;;;;;;;13.70;73.61;98987.47;5029444;28;20047;-75
2023/04/11 11:11:14;;;;;;;21.75;18.05;;;;;;;13.58;73.69;98982.25;5033704;28;20045;-75
2023/04/11 11:13:49;;;;;;;23.23;19.85;;;;;;;13.46;74.01;98984.78;5051146;28;20423;-75
2023/04/11 11:16:20;;;;;;;23.23;18.48;;;;;;;13.25;75.30;98973.16;5051906;28;20040;-75